Time;durP1;ratioP1;P1;durP2;ratioP2;P2;SDS_P1;SDS_P2;PMS_P1;PMS_P2;Temp;Humidity;BMP_temperature;BMP_pressure;BME280_temperature;BME280_humidity;BME280_pressure;Samples;Min_cycle;Max_cycle;Signal;HPM_P1;HPM_P2
2022/01/10 00:01:07;;;;;;;63.90;34.70;;;;;;;-0.86;65.29;99950.52;105201;1287;24444;-83
2022/01/10 00:03:35;;;;;;;62.10;32.90;;;;;;;-0.89;65.67;99958.58;105300;1287;23281;-83
2022/01/10 00:06:02;;;;;;;67.70;33.90;;;;;;;-0.89;65.78;99960.13;105766;1287;22618;-80
2022/01/10 00:08:30;;;;;;;62.30;33.50;;;;;;;-0.90;65.97;99958.54;106993;1287;22557;-82
2022/01/10 00:10:57;;;;;;;59.40;31.70;;;;;;;-0.90;65.82;99967.20;108203;1287;22589;-81
2022/01/10 00:13:24;;;;;;;55.20;30.90;;;;;;;-0.92;65.96;99974.55;107999;1287;22627;-82
2022/01/10 00:15:51;;;;;;;55.70;30.60;;;;;;;-0.92;66.04;99972.82;107611;1282;22569;-82
2022/01/10 00:18:56;;;;;;;60.50;33.00;;;;;;;-0.89;66.02;99973.24;108888;1281;22564;-82
2022/01/10 00:21:24;;;;;;;59.60;32.50;;;;;;;-0.85;65.99;99969.42;108373;1281;22598;-83
2022/01/10 00:23:51;;;;;;;54.60;29.80;;;;;;;-0.82;66.10;99971.73;106032;1281;22695;-81
2022/01/10 00:26:18;;;;;;;54.60;31.00;;;;;;;-0.83;66.07;99971.39;105391;1281;22867;-81
2022/01/10 00:28:59;;;;;;;53.30;29.00;;;;;;;-0.79;66.21;99972.88;105324;1281;22587;-80
2022/01/10 00:31:26;;;;;;;52.30;28.30;;;;;;;-0.81;66.06;99981.47;105513;1281;23983;-82
2022/01/10 00:33:53;;;;;;;48.90;26.00;;;;;;;-0.80;66.26;99981.14;104784;1285;22724;-81
2022/01/10 00:36:20;;;;;;;46.20;26.60;;;;;;;-0.79;66.18;99987.23;104750;1287;26794;-82
2022/01/10 00:38:47;;;;;;;48.80;28.10;;;;;;;-0.80;66.03;99991.16;105074;1285;22588;-78
2022/01/10 00:41:14;;;;;;;50.30;26.50;;;;;;;-0.80;66.15;99994.13;103911;1293;22686;-81
2022/01/10 00:43:45;;;;;;;45.70;25.90;;;;;;;-0.80;66.18;99997.73;104504;1290;22573;-81
2022/01/10 00:46:22;;;;;;;43.50;24.50;;;;;;;-0.85;66.22;100004.34;104515;1290;22531;-84
2022/01/10 00:57:35;;;;;;;46.20;25.70;;;;;;;-0.99;66.09;100018.23;104944;1287;22648;-87
2022/01/10 01:00:05;;;;;;;43.70;23.60;;;;;;;-1.09;66.68;100019.31;104892;1287;24421;-86
2022/01/10 01:02:33;;;;;;;48.60;24.90;;;;;;;-1.12;66.70;100023.20;105413;1287;22688;-88
2022/01/10 01:05:07;;;;;;;52.60;27.40;;;;;;;-1.12;66.82;100022.70;104954;1287;22585;-87
2022/01/10 01:07:39;;;;;;;54.60;28.60;;;;;;;-1.10;67.04;100030.16;105470;1287;24359;-88
2022/01/10 01:12:53;;;;;;;51.70;26.60;;;;;;;-0.92;67.39;100037.47;104550;1293;23390;-86
2022/01/10 01:15:26;;;;;;;47.10;25.90;;;;;;;-0.84;67.24;100040.14;104389;1293;25403;-86
2022/01/10 01:18:30;;;;;;;;;;;;;;;;;;;;;
2022/01/10 01:24:03;;;;;;;46.80;25.10;;;;;;;-0.84;67.30;100062.29;105103;1285;22576;-82
2022/01/10 01:26:34;;;;;;;42.50;24.40;;;;;;;-0.86;67.09;100070.02;105486;1287;23504;-79
2022/01/10 01:29:03;;;;;;;44.80;25.60;;;;;;;-0.87;67.34;100074.28;105758;1286;22702;-80
2022/01/10 01:31:31;;;;;;;39.10;23.60;;;;;;;-0.89;67.24;100074.05;105450;1287;24161;-79
2022/01/10 01:33:58;;;;;;;43.00;24.60;;;;;;;-0.90;67.45;100075.92;105475;1287;22575;-80
2022/01/10 01:36:27;;;;;;;46.60;25.40;;;;;;;-0.90;67.60;100076.63;105458;1288;25442;-83
2022/01/10 01:38:55;;;;;;;43.00;25.40;;;;;;;-0.90;67.42;100081.45;105809;1285;24389;-82
2022/01/10 01:43:52;;;;;;;45.80;25.70;;;;;;;-0.83;67.69;100085.48;105142;1287;23255;-85
2022/01/10 01:46:21;;;;;;;45.30;26.30;;;;;;;-0.81;67.65;100082.79;105126;1287;24197;-83
2022/01/10 01:48:50;;;;;;;54.90;29.80;;;;;;;-0.79;67.85;100079.24;105267;1287;24348;-83
2022/01/10 01:51:20;;;;;;;62.50;30.90;;;;;;;-0.79;67.64;100079.05;104834;1292;25379;-85
2022/01/10 01:53:52;;;;;;;48.20;28.00;;;;;;;-0.77;67.74;100085.67;105544;1292;24342;-89
2022/01/10 01:56:21;;;;;;;44.10;25.50;;;;;;;-0.73;67.71;100087.70;105182;1291;24000;-87
2022/01/10 01:58:55;;;;;;;45.10;27.60;;;;;;;-0.75;67.86;100084.69;105669;1290;22603;-88
2022/01/10 02:11:10;;;;;;;37.50;22.30;;;;;;;-0.78;67.99;100102.77;106531;1287;25767;-87
2022/01/10 02:13:44;;;;;;;37.50;22.60;;;;;;;-0.77;68.19;100107.84;106844;1280;25381;-89
2022/01/10 02:16:32;;;;;;;41.40;23.70;;;;;;;-0.69;68.29;100107.38;107447;1281;22572;-87
2022/01/10 02:19:26;;;;;;;36.80;21.50;;;;;;;-0.59;68.32;100112.71;106569;1281;22493;-88
2022/01/10 02:21:53;;;;;;;41.90;22.50;;;;;;;-0.54;68.09;100115.64;107993;1281;22897;-84
2022/01/10 02:24:23;;;;;;;39.20;23.00;;;;;;;-0.56;68.05;100116.61;108618;1281;25244;-84
2022/01/10 02:27:11;;;;;;;36.70;21.60;;;;;;;-0.53;68.08;100122.91;108688;1281;23200;-85
2022/01/10 02:29:38;;;;;;;37.20;22.90;;;;;;;-0.47;68.09;100125.36;106766;1282;23960;-87
2022/01/10 02:32:05;;;;;;;36.80;21.80;;;;;;;-0.43;68.10;100128.25;106391;1281;22573;-88
2022/01/10 02:34:33;;;;;;;45.10;25.40;;;;;;;-0.37;68.05;100131.55;107138;1281;25668;-87
2022/01/10 02:37:00;;;;;;;39.30;23.60;;;;;;;-0.34;68.08;100129.55;107303;1281;22563;-82
2022/01/10 02:39:31;;;;;;;42.20;24.90;;;;;;;-0.33;67.86;100129.77;108848;1281;22998;-89
2022/01/10 02:42:01;;;;;;;40.90;24.80;;;;;;;-0.33;67.96;100137.57;109001;1281;22506;-87
2022/01/10 02:44:34;;;;;;;40.10;24.30;;;;;;;-0.41;67.96;100135.59;108167;1281;22526;-88
2022/01/10 02:47:02;;;;;;;41.60;24.40;;;;;;;-0.36;68.15;100144.23;107432;1285;22594;-86
2022/01/10 02:49:33;;;;;;;42.30;26.80;;;;;;;-0.35;68.07;100145.45;107510;1284;22714;-86
2022/01/10 02:52:07;;;;;;;44.20;26.50;;;;;;;-0.35;68.22;100154.10;106523;1284;22648;-84
2022/01/10 02:54:35;;;;;;;45.00;26.60;;;;;;;-0.33;68.52;100157.98;105561;1290;24249;-86
2022/01/10 02:57:09;;;;;;;42.90;26.10;;;;;;;-0.26;68.29;100165.47;105565;1290;23186;-85
2022/01/10 03:00:00;;;;;;;43.40;25.50;;;;;;;-0.29;68.26;100164.70;105318;1291;25484;-85
2022/01/10 03:02:54;;;;;;;42.20;24.50;;;;;;;-0.37;68.11;100158.38;105072;1291;22493;-89
2022/01/10 03:05:27;;;;;;;46.20;24.70;;;;;;;-0.31;68.61;100168.42;105284;1288;22684;-85
2022/01/10 03:07:56;;;;;;;46.40;24.90;;;;;;;-0.27;68.54;100175.48;105521;1285;22579;-84
2022/01/10 03:10:23;;;;;;;39.70;22.60;;;;;;;-0.29;68.32;100178.00;105418;1288;22509;-81
2022/01/10 03:12:51;;;;;;;41.30;24.30;;;;;;;-0.31;68.32;100184.86;106177;1282;22750;-85
2022/01/10 03:15:18;;;;;;;39.20;24.80;;;;;;;-0.28;68.70;100190.15;107899;1281;24237;-91
2022/01/10 03:17:47;;;;;;;35.40;22.30;;;;;;;-0.20;68.67;100193.16;108423;1282;22591;-86
2022/01/10 03:20:16;;;;;;;32.00;19.70;;;;;;;-0.23;68.54;100195.34;108873;1281;22584;-86
2022/01/10 03:22:43;;;;;;;30.00;19.90;;;;;;;-0.24;68.64;100207.21;108265;1281;22735;-87
2022/01/10 03:25:11;;;;;;;32.10;20.10;;;;;;;-0.30;68.24;100211.52;108442;1281;22557;-87
2022/01/10 03:27:41;;;;;;;31.20;19.30;;;;;;;-0.38;68.61;100209.56;106980;1287;22748;-83
2022/01/10 03:30:10;;;;;;;30.80;20.50;;;;;;;-0.31;68.92;100217.06;104610;1291;24220;-84
2022/01/10 03:32:38;;;;;;;30.30;19.90;;;;;;;-0.21;68.78;100219.45;105038;1291;24251;-85
2022/01/10 03:35:26;;;;;;;31.30;19.80;;;;;;;-0.17;68.70;100225.98;104286;1293;24263;-85
2022/01/10 03:37:53;;;;;;;35.30;21.70;;;;;;;-0.21;68.61;100228.30;104916;1291;22738;-89
2022/01/10 03:40:22;;;;;;;34.70;22.30;;;;;;;-0.19;68.71;100231.30;105453;1290;22723;-84
2022/01/10 03:42:52;;;;;;;37.70;22.90;;;;;;;-0.18;68.61;100238.05;104696;1291;25429;-85
2022/01/10 03:45:19;;;;;;;38.50;22.80;;;;;;;-0.16;68.76;100244.20;105463;1291;24906;-81
2022/01/10 03:47:47;;;;;;;37.00;22.20;;;;;;;-0.10;68.60;100247.16;104249;1290;22615;-83
2022/01/10 03:50:14;;;;;;;33.40;19.70;;;;;;;-0.07;68.55;100250.69;105499;1290;26525;-83
2022/01/10 03:52:42;;;;;;;33.20;21.00;;;;;;;-0.07;68.57;100251.75;105179;1288;22591;-88
2022/01/10 03:55:11;;;;;;;32.00;19.90;;;;;;;0.02;68.49;100256.16;104586;1292;22615;-88
2022/01/10 03:57:38;;;;;;;28.90;17.10;;;;;;;0.04;68.44;100255.89;104749;1291;24355;-82
2022/01/10 04:00:08;;;;;;;29.00;18.90;;;;;;;0.02;68.05;100258.23;104739;1291;22560;-82
2022/01/10 04:02:46;;;;;;;28.20;18.40;;;;;;;-0.00;68.21;100266.67;104805;1290;24004;-82
2022/01/10 04:05:14;;;;;;;29.70;18.20;;;;;;;0.00;68.32;100266.67;105158;1290;22559;-83
2022/01/10 04:07:42;;;;;;;26.90;19.00;;;;;;;0.02;68.23;100268.83;106427;1290;22612;-85
2022/01/10 04:10:09;;;;;;;32.50;19.10;;;;;;;0.04;68.25;100270.96;106625;1288;22688;-85
2022/01/10 04:12:37;;;;;;;28.90;17.90;;;;;;;0.05;67.97;100271.84;106733;1282;24814;-85
2022/01/10 04:15:06;;;;;;;27.10;17.90;;;;;;;0.02;68.01;100273.50;106756;1281;22781;-86
2022/01/10 04:17:33;;;;;;;26.10;16.30;;;;;;;0.02;68.00;100280.06;105082;1287;25606;-85
2022/01/10 04:20:03;;;;;;;28.50;17.70;;;;;;;-0.02;67.89;100284.98;105386;1283;22623;-87
2022/01/10 04:22:31;;;;;;;25.20;16.60;;;;;;;-0.04;67.99;100288.02;105501;1284;23088;-88
2022/01/10 04:25:00;;;;;;;25.10;16.80;;;;;;;-0.06;68.05;100294.85;105334;1284;22917;-85
2022/01/10 04:27:32;;;;;;;28.40;16.60;;;;;;;-0.04;68.09;100289.93;104721;1288;24007;-86
2022/01/10 04:30:14;;;;;;;30.60;18.10;;;;;;;-0.00;68.17;100291.42;104704;1290;22532;-91
2022/01/10 04:34:17;;;;;;;;;;;;;;;;;;;;;
2022/01/10 04:37:05;;;;;;;;;;;;;;;0.10;67.86;100292.27;104976;1285;25253;-83
2022/01/10 04:39:32;;;;;;;25.80;16.20;;;;;;;0.10;67.86;100300.59;105330;1285;22576;-82
2022/01/10 04:42:00;;;;;;;31.40;18.20;;;;;;;0.03;67.67;100306.59;104728;1289;22598;-83
2022/01/10 04:44:29;;;;;;;27.60;16.80;;;;;;;-0.01;67.81;100308.74;104424;1291;22562;-88
2022/01/10 04:46:59;;;;;;;28.90;17.60;;;;;;;0.04;68.14;100314.41;104381;1293;22572;-88
2022/01/10 04:49:37;;;;;;;27.10;16.70;;;;;;;0.10;68.01;100325.69;104408;1293;22753;-88
2022/01/10 04:52:35;;;;;;;30.90;17.60;;;;;;;0.12;67.93;100329.06;104430;1293;25399;-88
2022/01/10 04:55:04;;;;;;;25.20;15.30;;;;;;;0.14;67.69;100336.56;104520;1291;22586;-84
2022/01/10 04:57:32;;;;;;;27.60;16.60;;;;;;;0.05;67.61;100337.85;104219;1296;23238;-85
2022/01/10 04:59:59;;;;;;;30.40;18.00;;;;;;;-0.02;67.84;100339.52;104375;1290;22559;-89
2022/01/10 05:02:26;;;;;;;28.90;18.00;;;;;;;0.01;67.93;100337.88;104371;1293;22554;-88
2022/01/10 05:04:55;;;;;;;28.10;17.60;;;;;;;-0.01;67.84;100337.63;104268;1294;25289;-88
2022/01/10 05:07:22;;;;;;;33.60;18.40;;;;;;;-0.03;67.94;100342.05;104171;1293;22575;-80
2022/01/10 05:09:49;;;;;;;29.40;18.50;;;;;;;0.00;68.17;100348.41;104100;1290;25279;-82
2022/01/10 05:12:17;;;;;;;33.70;18.80;;;;;;;0.01;68.19;100350.54;104822;1288;22563;-88
2022/01/10 05:14:44;;;;;;;30.90;18.30;;;;;;;0.05;68.24;100353.40;105119;1285;23973;-89
2022/01/10 05:17:12;;;;;;;32.20;19.00;;;;;;;0.05;67.98;100356.34;105164;1287;22569;-87
2022/01/10 05:19:40;;;;;;;34.70;20.60;;;;;;;0.06;67.97;100362.46;105008;1287;22614;-87
2022/01/10 05:22:09;;;;;;;31.50;19.10;;;;;;;0.09;68.08;100372.26;105465;1279;22563;-83
2022/01/10 05:24:38;;;;;;;34.20;20.90;;;;;;;0.04;68.03;100370.02;105655;1284;22500;-83
2022/01/10 05:27:09;;;;;;;31.90;19.40;;;;;;;0.06;68.08;100380.45;105747;1284;25222;-85
2022/01/10 05:29:36;;;;;;;33.00;19.10;;;;;;;0.07;68.12;100385.35;105062;1288;22582;-87
2022/01/10 05:32:04;;;;;;;37.20;20.70;;;;;;;0.03;68.05;100389.53;105160;1288;22585;-87
2022/01/10 05:34:53;;;;;;;36.80;21.10;;;;;;;0.05;68.38;100396.70;105386;1290;22601;-86
2022/01/10 05:37:21;;;;;;;34.60;19.50;;;;;;;0.10;68.28;100399.81;105408;1288;25392;-86
2022/01/10 05:39:48;;;;;;;35.10;20.50;;;;;;;0.06;68.09;100404.73;105508;1288;23985;-85
2022/01/10 05:42:16;;;;;;;34.00;20.40;;;;;;;0.05;68.09;100412.65;105560;1285;22584;-85
2022/01/10 05:44:44;;;;;;;35.50;19.60;;;;;;;0.02;68.09;100417.55;105627;1285;22674;-87
2022/01/10 05:47:11;;;;;;;34.50;20.00;;;;;;;-0.00;68.28;100416.80;105341;1281;22640;-86
2022/01/10 05:50:04;;;;;;;36.30;20.30;;;;;;;-0.05;68.45;100414.39;106341;1281;22645;-91
2022/01/10 05:52:54;;;;;;;31.40;18.20;;;;;;;-0.01;68.54;100418.33;106664;1281;22588;-88
2022/01/10 05:55:26;;;;;;;34.20;19.50;;;;;;;0.04;68.55;100422.81;106319;1281;22560;-89
2022/01/10 05:57:55;;;;;;;37.30;21.30;;;;;;;0.09;68.57;100423.88;105747;1281;23974;-89
2022/01/10 06:00:23;;;;;;;36.20;19.40;;;;;;;0.17;68.63;100419.77;106196;1281;22560;-84
2022/01/10 06:02:50;;;;;;;42.50;23.20;;;;;;;0.16;68.29;100421.50;105650;1282;23969;-86
2022/01/10 06:05:29;;;;;;;42.20;24.50;;;;;;;0.17;68.43;100429.83;105517;1282;26599;-82
2022/01/10 06:08:06;;;;;;;42.10;22.30;;;;;;;0.22;68.48;100439.55;105911;1281;22611;-86
2022/01/10 06:10:36;;;;;;;41.20;23.10;;;;;;;0.25;68.34;100438.24;105770;1282;22626;-83
2022/01/10 06:13:15;;;;;;;42.90;24.30;;;;;;;0.23;68.33;100438.69;105986;1281;26544;-86
2022/01/10 06:15:42;;;;;;;44.30;24.10;;;;;;;0.21;68.15;100448.00;105994;1281;22882;-89
2022/01/10 06:18:10;;;;;;;43.50;24.60;;;;;;;0.20;68.29;100456.95;105824;1281;22558;-82
2022/01/10 06:20:40;;;;;;;42.30;23.90;;;;;;;0.20;68.26;100458.01;105956;1282;22645;-83
2022/01/10 06:23:14;;;;;;;40.40;23.40;;;;;;;0.21;68.32;100462.20;106339;1281;26509;-84
2022/01/10 06:25:43;;;;;;;42.40;23.70;;;;;;;0.19;68.08;100470.44;106149;1285;22580;-84
2022/01/10 06:28:11;;;;;;;41.90;25.40;;;;;;;0.18;68.27;100476.65;107145;1284;22583;-84
2022/01/10 06:30:38;;;;;;;43.10;24.80;;;;;;;0.11;68.03;100485.57;108369;1285;22686;-85
2022/01/10 06:33:06;;;;;;;47.40;25.70;;;;;;;0.10;68.56;100492.66;108480;1285;22606;-85
2022/01/10 06:38:39;;;;;;;42.80;24.50;;;;;;;0.14;68.36;100503.16;109603;1264;22837;-83
2022/01/10 06:41:07;;;;;;;40.40;24.70;;;;;;;0.16;68.45;100506.52;108977;1274;22722;-83
2022/01/10 06:43:37;;;;;;;46.30;26.00;;;;;;;0.16;68.18;100520.88;106778;1277;25277;-84
2022/01/10 06:46:09;;;;;;;55.60;29.10;;;;;;;0.17;68.41;100523.19;105751;1281;23207;-83
2022/01/10 06:48:36;;;;;;;49.80;27.20;;;;;;;0.23;68.72;100522.20;105014;1288;26534;-83
2022/01/10 06:51:03;;;;;;;50.50;27.90;;;;;;;0.34;68.59;100528.98;105340;1288;22609;-87
2022/01/10 06:53:31;;;;;;;48.30;27.60;;;;;;;0.35;68.29;100533.87;105260;1289;329733;-86
2022/01/10 06:56:00;;;;;;;51.90;27.80;;;;;;;0.31;68.17;100535.63;106422;1287;23337;-83
2022/01/10 06:58:27;;;;;;;46.30;26.70;;;;;;;0.31;68.18;100543.79;106304;1287;24184;-84
2022/01/10 07:00:57;;;;;;;47.90;26.60;;;;;;;0.29;68.15;100548.21;105646;1288;25372;-85
2022/01/10 07:03:28;;;;;;;51.20;27.10;;;;;;;0.31;68.22;100553.30;105903;1285;25664;-84
2022/01/10 07:06:04;;;;;;;49.20;25.40;;;;;;;0.27;68.28;100557.49;106683;1277;22671;-84
2022/01/10 07:08:31;;;;;;;45.70;26.10;;;;;;;0.26;68.28;100568.02;106898;1275;22543;-83
2022/01/10 07:11:01;;;;;;;47.10;26.70;;;;;;;0.24;68.39;100567.77;106739;1275;22545;-81
2022/01/10 07:13:30;;;;;;;47.90;25.40;;;;;;;0.24;68.60;100575.60;106374;1281;22597;-82
2022/01/10 07:16:02;;;;;;;52.00;26.50;;;;;;;0.24;68.47;100576.98;106230;1285;24321;-86
2022/01/10 07:18:30;;;;;;;49.90;26.90;;;;;;;0.20;68.37;100579.77;106522;1282;22536;-84
2022/01/10 07:20:59;;;;;;;46.00;27.40;;;;;;;0.19;68.53;100582.69;106306;1281;22658;-85
2022/01/10 07:23:27;;;;;;;54.00;27.20;;;;;;;0.19;68.59;100587.53;106366;1284;25263;-84
2022/01/10 07:25:54;;;;;;;55.10;28.40;;;;;;;0.21;68.66;100587.44;105889;1287;22908;-84
2022/01/10 07:28:21;;;;;;;50.80;29.50;;;;;;;0.25;68.54;100593.29;105951;1288;25241;-85
2022/01/10 07:30:49;;;;;;;49.10;26.20;;;;;;;0.30;68.70;100596.76;104859;1290;26573;-86
2022/01/10 07:33:17;;;;;;;49.80;29.30;;;;;;;0.37;68.41;100602.19;104783;1291;26631;-87
2022/01/10 07:35:44;;;;;;;51.00;28.20;;;;;;;0.40;68.42;100609.25;104590;1294;22653;-83
2022/01/10 07:38:11;;;;;;;51.30;28.70;;;;;;;0.46;68.41;100615.70;104779;1293;23529;-84
2022/01/10 07:40:42;;;;;;;46.50;27.20;;;;;;;0.46;68.11;100619.17;104600;1294;25607;-84
2022/01/10 07:43:10;;;;;;;48.90;27.30;;;;;;;0.40;68.05;100622.94;104764;1294;22607;-86
2022/01/10 07:46:04;;;;;;;45.10;27.90;;;;;;;0.37;68.13;100630.09;105069;1288;24299;-84
2022/01/10 07:48:35;;;;;;;45.40;27.30;;;;;;;0.32;68.21;100632.86;105161;1288;25371;-84
2022/01/10 07:51:08;;;;;;;50.20;28.10;;;;;;;0.32;68.39;100638.21;105409;1281;22577;-87
2022/01/10 07:53:38;;;;;;;48.30;27.10;;;;;;;0.34;68.41;100636.23;106374;1274;26009;-83
2022/01/10 07:56:10;;;;;;;42.90;26.90;;;;;;;0.40;68.46;100646.14;106665;1274;22690;-85
2022/01/10 07:58:37;;;;;;;43.40;27.00;;;;;;;0.44;68.29;100652.54;106522;1275;22628;-85
2022/01/10 08:01:09;;;;;;;43.30;24.50;;;;;;;0.40;68.12;100651.86;106047;1281;24106;-85
2022/01/10 08:03:37;;;;;;;44.30;26.00;;;;;;;0.42;68.20;100656.79;105397;1284;24233;-85
2022/01/10 08:06:05;;;;;;;41.80;24.10;;;;;;;0.46;68.23;100658.66;105476;1285;22704;-85
2022/01/10 08:08:33;;;;;;;39.70;24.90;;;;;;;0.48;67.95;100667.94;105438;1284;22723;-84
2022/01/10 08:11:01;;;;;;;42.30;25.20;;;;;;;0.44;67.86;100671.42;105471;1284;22682;-87
2022/01/10 08:13:28;;;;;;;41.80;26.50;;;;;;;0.44;67.98;100674.90;105367;1284;22668;-85
2022/01/10 08:15:56;;;;;;;38.50;23.50;;;;;;;0.39;67.82;100683.54;105531;1287;22574;-85
2022/01/10 08:18:25;;;;;;;38.90;23.30;;;;;;;0.34;67.85;100693.59;105584;1284;22730;-86
2022/01/10 08:20:53;;;;;;;41.80;25.30;;;;;;;0.34;67.80;100696.70;106135;1281;22694;-86
2022/01/10 08:23:22;;;;;;;35.40;22.10;;;;;;;0.33;67.87;100700.81;106526;1274;25415;-83
2022/01/10 08:25:49;;;;;;;39.80;24.50;;;;;;;0.26;67.62;100703.51;106332;1275;25366;-85
2022/01/10 08:28:17;;;;;;;40.50;25.10;;;;;;;0.29;67.97;100705.36;106221;1274;25416;-84
2022/01/10 08:30:44;;;;;;;41.40;25.10;;;;;;;0.34;68.14;100707.08;106688;1277;25251;-85
2022/01/10 08:33:12;;;;;;;39.10;24.90;;;;;;;0.38;68.02;100708.77;105801;1281;25527;-89
2022/01/10 08:35:40;;;;;;;39.30;23.60;;;;;;;0.39;68.03;100711.79;105829;1281;25263;-87
2022/01/10 08:38:07;;;;;;;40.10;23.20;;;;;;;0.43;67.94;100717.81;106040;1281;24253;-85
2022/01/10 08:40:34;;;;;;;40.60;23.60;;;;;;;0.42;67.96;100722.46;105550;1285;23413;-87
2022/01/10 08:43:06;;;;;;;40.70;23.90;;;;;;;0.45;67.93;100727.45;105501;1287;25555;-85
2022/01/10 08:45:34;;;;;;;35.90;22.70;;;;;;;0.47;67.85;100727.35;105446;1284;25645;-84
2022/01/10 08:48:01;;;;;;;38.90;23.70;;;;;;;0.51;67.81;100726.77;106250;1284;25405;-84
2022/01/10 08:50:28;;;;;;;37.30;22.20;;;;;;;0.56;67.62;100732.15;107435;1284;22603;-85
2022/01/10 08:52:56;;;;;;;34.20;21.60;;;;;;;0.59;67.47;100734.36;107845;1284;22602;-83
2022/01/10 08:55:27;;;;;;;35.80;20.00;;;;;;;0.58;67.16;100735.17;107379;1284;22492;-85
2022/01/10 08:57:54;;;;;;;36.10;22.10;;;;;;;0.50;66.91;100739.77;107273;1278;22781;-85
2022/01/10 09:00:21;;;;;;;41.70;23.10;;;;;;;0.43;66.98;100741.20;107330;1283;25334;-84
2022/01/10 09:02:48;;;;;;;37.60;22.60;;;;;;;0.44;67.35;100743.16;107261;1283;22838;-86
2022/01/10 09:05:16;;;;;;;35.80;21.90;;;;;;;0.53;67.57;100751.99;104970;1290;24305;-85
2022/01/10 09:07:43;;;;;;;35.10;21.90;;;;;;;0.57;67.36;100754.39;104809;1290;25385;-85
2022/01/10 09:10:17;;;;;;;35.90;21.70;;;;;;;0.58;66.91;100754.61;104829;1290;25260;-86
2022/01/10 09:12:44;;;;;;;33.90;18.80;;;;;;;0.56;67.06;100758.88;105269;1290;24279;-84
2022/01/10 09:15:13;;;;;;;39.30;22.00;;;;;;;0.48;66.78;100764.47;104482;1297;22939;-85
2022/01/10 09:17:42;;;;;;;35.20;20.40;;;;;;;0.50;67.13;100768.85;104282;1288;25416;-87
2022/01/10 09:20:10;;;;;;;42.70;22.90;;;;;;;0.60;66.85;100774.09;105269;1287;24616;-88
2022/01/10 09:22:37;;;;;;;34.80;20.60;;;;;;;0.65;66.91;100772.88;104935;1291;22689;-83
2022/01/10 09:25:05;;;;;;;39.70;22.00;;;;;;;0.67;66.57;100773.83;105394;1287;22610;-86
2022/01/10 09:27:33;;;;;;;38.30;21.50;;;;;;;0.70;66.67;100777.75;105957;1287;23396;-86
2022/01/10 09:30:00;;;;;;;37.50;21.10;;;;;;;0.66;66.36;100778.30;105809;1287;24268;-86
2022/01/10 09:32:27;;;;;;;34.40;20.20;;;;;;;0.64;66.24;100780.33;106057;1287;23112;-84
2022/01/10 09:34:55;;;;;;;41.60;23.10;;;;;;;0.68;66.45;100787.02;106777;1284;22743;-84
2022/01/10 09:37:25;;;;;;;37.60;21.20;;;;;;;0.75;66.52;100783.47;107899;1285;22558;-85
2022/01/10 09:40:01;;;;;;;40.20;23.00;;;;;;;0.82;66.43;100776.99;108380;1274;22635;-85
2022/01/10 09:42:33;;;;;;;37.60;21.60;;;;;;;1.02;66.37;100783.77;109090;1276;24257;-86
2022/01/10 09:45:03;;;;;;;34.10;20.50;;;;;;;1.18;65.89;100786.77;109158;1276;22549;-85
2022/01/10 09:47:31;;;;;;;36.80;21.00;;;;;;;1.30;65.64;100790.98;108887;1277;22587;-87
2022/01/10 09:50:08;;;;;;;37.00;20.70;;;;;;;1.45;65.37;100792.88;108708;1276;22579;-85
2022/01/10 09:52:39;;;;;;;34.20;19.70;;;;;;;1.53;64.93;100792.98;108913;1279;22770;-85
2022/01/10 09:55:07;;;;;;;37.90;22.30;;;;;;;1.68;64.75;100793.16;108817;1279;22431;-85
2022/01/10 09:57:35;;;;;;;34.40;21.40;;;;;;;1.81;64.44;100790.30;107415;1287;23302;-84
2022/01/10 10:00:07;;;;;;;35.30;20.20;;;;;;;2.03;64.15;100797.23;105692;1287;22594;-86
2022/01/10 10:02:41;;;;;;;36.00;20.30;;;;;;;2.21;63.61;100801.98;105476;1287;25331;-86
2022/01/10 10:05:11;;;;;;;39.30;21.10;;;;;;;2.38;63.30;100806.15;104659;1294;25309;-85
2022/01/10 10:07:40;;;;;;;36.40;20.00;;;;;;;2.50;62.64;100806.88;104726;1294;22582;-85
2022/01/10 10:10:11;;;;;;;30.00;19.00;;;;;;;2.58;62.36;100812.34;104770;1291;25241;-86
2022/01/10 10:12:45;;;;;;;36.60;21.50;;;;;;;2.64;62.16;100813.72;105305;1287;22753;-85
2022/01/10 10:15:16;;;;;;;34.80;20.30;;;;;;;2.71;62.12;100818.29;105130;1290;23946;-84
2022/01/10 10:17:45;;;;;;;28.50;18.00;;;;;;;2.82;61.79;100823.48;105808;1290;22581;-84
2022/01/10 10:20:18;;;;;;;30.90;19.30;;;;;;;2.84;61.38;100827.02;106854;1290;22616;-84
2022/01/10 10:23:06;;;;;;;30.60;20.00;;;;;;;2.76;61.28;100832.49;108364;1280;22597;-85
2022/01/10 10:25:34;;;;;;;31.00;18.80;;;;;;;2.82;61.05;100830.27;108384;1284;22579;-85
2022/01/10 10:28:02;;;;;;;36.90;20.60;;;;;;;2.84;61.16;100835.90;108585;1284;25427;-85
2022/01/10 10:30:32;;;;;;;36.20;20.70;;;;;;;2.84;60.94;100834.33;107977;1288;22579;-85
2022/01/10 10:33:29;;;;;;;34.20;19.70;;;;;;;2.91;60.81;100834.00;108021;1287;23060;-85
2022/01/10 10:36:06;;;;;;;31.90;19.70;;;;;;;2.97;60.57;100839.74;108290;1287;22588;-84
2022/01/10 10:38:37;;;;;;;32.90;18.90;;;;;;;3.06;60.36;100845.05;108598;1285;22609;-87
2022/01/10 10:41:06;;;;;;;27.80;17.30;;;;;;;3.08;60.03;100845.10;108348;1287;22718;-85
2022/01/10 10:43:39;;;;;;;29.00;17.10;;;;;;;3.10;59.68;100846.36;108337;1281;22652;-86
2022/01/10 10:46:17;;;;;;;29.90;18.50;;;;;;;3.08;59.38;100848.08;108754;1281;22607;-85
2022/01/10 10:48:50;;;;;;;29.10;17.00;;;;;;;3.04;59.12;100852.12;109202;1276;22563;-86
2022/01/10 10:51:17;;;;;;;26.10;16.80;;;;;;;2.92;58.86;100854.38;109456;1276;22640;-84
2022/01/10 10:53:45;;;;;;;22.10;15.00;;;;;;;2.86;58.86;100853.86;109465;1276;22620;-85
2022/01/10 10:56:12;;;;;;;23.40;15.20;;;;;;;2.80;58.72;100855.08;109491;1274;22711;-85
2022/01/10 10:58:41;;;;;;;23.50;13.90;;;;;;;2.77;58.38;100861.06;109396;1276;22509;-85
2022/01/10 11:01:08;;;;;;;25.70;15.40;;;;;;;2.74;58.44;100866.01;108725;1282;22551;-83
2022/01/10 11:03:36;;;;;;;23.90;15.20;;;;;;;2.69;58.28;100866.56;108533;1282;22925;-85
2022/01/10 11:06:05;;;;;;;22.40;14.80;;;;;;;2.67;58.23;100872.95;108839;1282;22606;-84
2022/01/10 11:08:36;;;;;;;28.20;14.20;;;;;;;2.69;58.09;100875.97;108684;1282;23085;-86
2022/01/10 11:11:03;;;;;;;26.00;14.90;;;;;;;2.74;58.07;100881.00;108694;1282;22583;-83
2022/01/10 11:13:31;;;;;;;25.30;14.70;;;;;;;3.02;58.10;100885.11;107071;1282;22576;-85
2022/01/10 11:15:58;;;;;;;25.90;14.40;;;;;;;3.33;57.68;100882.02;105846;1282;24706;-85
2022/01/10 11:18:26;;;;;;;25.50;14.70;;;;;;;3.54;57.26;100883.46;106819;1282;22589;-87
2022/01/10 11:20:57;;;;;;;23.00;14.20;;;;;;;3.81;56.92;100884.70;108790;1281;22692;-83
2022/01/10 11:23:40;;;;;;;21.10;12.40;;;;;;;4.13;56.03;100888.13;108588;1281;22572;-86
2022/01/10 11:26:08;;;;;;;18.30;12.10;;;;;;;4.40;55.23;100888.12;108643;1276;22568;-84
2022/01/10 11:28:47;;;;;;;19.40;12.20;;;;;;;4.60;54.66;100888.92;108330;1274;25377;-84
2022/01/10 11:31:23;;;;;;;16.70;10.70;;;;;;;4.81;53.76;100890.80;108175;1277;22754;-85
2022/01/10 11:33:54;;;;;;;18.30;11.40;;;;;;;5.05;53.42;100892.89;107625;1276;26594;-84
2022/01/10 11:36:24;;;;;;;18.20;10.70;;;;;;;5.28;52.85;100893.38;106445;1274;22555;-83
2022/01/10 11:39:08;;;;;;;16.80;10.60;;;;;;;5.48;52.24;100899.01;106288;1276;23943;-84
2022/01/10 11:41:35;;;;;;;14.40;9.90;;;;;;;5.60;51.49;100904.66;106052;1275;22581;-82
2022/01/10 11:44:10;;;;;;;16.20;11.80;;;;;;;5.74;51.34;100906.34;105993;1276;22640;-84
2022/01/10 11:46:59;;;;;;;13.50;9.60;;;;;;;5.92;50.78;100909.12;105944;1276;24379;-85
2022/01/10 11:49:26;;;;;;;13.90;9.70;;;;;;;6.13;50.28;100911.77;106233;1274;22564;-83
2022/01/10 11:51:56;;;;;;;15.70;9.70;;;;;;;6.29;50.11;100921.49;106171;1276;24113;-84
2022/01/10 11:54:37;;;;;;;15.50;10.60;;;;;;;6.39;49.49;100920.45;106162;1277;25646;-86
2022/01/10 11:57:11;;;;;;;12.80;9.30;;;;;;;6.48;49.31;100920.95;106099;1276;23938;-85